Time;durP1;ratioP1;P1;durP2;ratioP2;P2;SDS_P1;SDS_P2;PMS_P1;PMS_P2;Temp;Humidity;BMP_temperature;BMP_pressure;BME280_temperature;BME280_humidity;BME280_pressure;Samples;Min_cycle;Max_cycle;Signal;HPM_P1;HPM_P2
2021/07/08 00:02:18;;;;;;;8.13;6.20;;;;;;;;;;5025021;28;20117;-70
2021/07/08 00:04:44;;;;;;;9.32;5.75;;;;;;;;;;5026350;28;20114;-71
2021/07/08 00:07:11;;;;;;;8.57;5.50;;;;;;;;;;5026494;28;20095;-70
2021/07/08 00:09:38;;;;;;;10.68;5.80;;;;;;;;;;5025694;28;20041;-70
2021/07/08 00:12:04;;;;;;;10.60;6.45;;;;;;;;;;5025612;28;20424;-71
2021/07/08 00:14:31;;;;;;;6.53;5.85;;;;;;;;;;5024924;28;20061;-71
2021/07/08 00:16:57;;;;;;;14.38;6.22;;;;;;;;;;5026252;28;20037;-71
2021/07/08 00:19:23;;;;;;;10.02;5.70;;;;;;;;;;5025615;28;20104;-71
2021/07/08 00:21:49;;;;;;;11.00;6.70;;;;;;;;;;5025767;28;20029;-70
2021/07/08 00:24:15;;;;;;;7.00;5.70;;;;;;;;;;5026423;28;20061;-72
2021/07/08 00:26:41;;;;;;;12.02;6.38;;;;;;;;;;5025858;28;20042;-71
2021/07/08 00:29:08;;;;;;;16.08;6.45;;;;;;;;;;5024567;28;20049;-71
2021/07/08 00:31:34;;;;;;;14.15;6.28;;;;;;;;;;5026261;28;20029;-71
2021/07/08 00:34:01;;;;;;;13.02;6.40;;;;;;;;;;5025384;28;20035;-73
2021/07/08 00:36:28;;;;;;;10.68;6.55;;;;;;;;;;5026236;28;20113;-71
2021/07/08 00:38:55;;;;;;;6.97;5.75;;;;;;;;;;5025823;28;20057;-71
2021/07/08 00:41:21;;;;;;;10.23;6.45;;;;;;;;;;5024562;28;20032;-70
2021/07/08 00:43:51;;;;;;;10.38;6.43;;;;;;;;;;5025774;28;20033;-71
2021/07/08 00:46:17;;;;;;;10.30;6.30;;;;;;;;;;5026175;28;20018;-71
2021/07/08 00:48:43;;;;;;;8.77;6.25;;;;;;;;;;5026046;28;20120;-72
2021/07/08 00:51:09;;;;;;;13.40;6.03;;;;;;;;;;5025939;28;20024;-71
2021/07/08 00:53:35;;;;;;;8.95;6.13;;;;;;;;;;5025699;28;20501;-71
2021/07/08 00:56:03;;;;;;;8.02;6.03;;;;;;;;;;5024038;28;20128;-70
2021/07/08 00:58:29;;;;;;;10.45;6.68;;;;;;;;;;5029658;28;20497;-70
2021/07/08 01:00:56;;;;;;;8.43;6.05;;;;;;;;;;5029994;28;20376;-71
2021/07/08 01:03:22;;;;;;;8.55;5.75;;;;;;;;;;5030016;28;20021;-72
2021/07/08 01:05:50;;;;;;;6.72;5.85;;;;;;;;;;5030139;28;20033;-74
2021/07/08 01:08:16;;;;;;;10.07;6.18;;;;;;;;;;5028437;28;20033;-73
2021/07/08 01:10:43;;;;;;;8.20;6.30;;;;;;;;;;5029763;28;20033;-73
2021/07/08 01:13:09;;;;;;;9.65;6.18;;;;;;;;;;5029198;28;20022;-77
2021/07/08 01:15:36;;;;;;;13.20;6.80;;;;;;;;;;5029558;28;20129;-72
2021/07/08 01:18:02;;;;;;;11.05;7.13;;;;;;;;;;5028373;28;20088;-72
2021/07/08 01:20:30;;;;;;;12.43;6.75;;;;;;;;;;5029399;28;20018;-74
2021/07/08 01:22:59;;;;;;;7.07;6.45;;;;;;;;;;5029704;28;20037;-77
2021/07/08 01:25:44;;;;;;;9.50;6.57;;;;;;;;;;5022047;28;20029;-72
2021/07/08 01:28:11;;;;;;;13.35;6.72;;;;;;;;;;5029171;28;20044;-73
2021/07/08 01:30:37;;;;;;;11.68;7.22;;;;;;;;;;5027881;28;20025;-72
2021/07/08 01:33:04;;;;;;;7.60;6.18;;;;;;;;;;5028699;28;20116;-78
2021/07/08 01:35:30;;;;;;;7.57;6.80;;;;;;;;;;5029456;28;20160;-75
2021/07/08 01:37:56;;;;;;;7.18;6.47;;;;;;;;;;5029041;28;20026;-74
2021/07/08 01:40:23;;;;;;;7.85;6.13;;;;;;;;;;5028384;28;20060;-72
2021/07/08 01:42:49;;;;;;;7.50;6.28;;;;;;;;;;5028952;28;20025;-79
2021/07/08 01:45:16;;;;;;;8.00;6.35;;;;;;;;;;5027126;28;20359;-75
2021/07/08 01:47:44;;;;;;;9.85;6.93;;;;;;;;;;5029088;28;20075;-76
2021/07/08 01:50:14;;;;;;;11.25;7.20;;;;;;;;;;5028925;28;20037;-76
2021/07/08 01:52:41;;;;;;;10.32;6.88;;;;;;;;;;5028805;28;20027;-72
2021/07/08 01:55:07;;;;;;;7.22;6.43;;;;;;;;;;5027661;28;20029;-72
2021/07/08 01:57:34;;;;;;;10.20;6.63;;;;;;;;;;5028625;28;20034;-73
2021/07/08 02:00:00;;;;;;;10.88;6.82;;;;;;;;;;5028997;28;20033;-72
2021/07/08 02:02:26;;;;;;;11.77;6.95;;;;;;;;;;5027704;28;20503;-72
2021/07/08 02:04:52;;;;;;;15.55;7.50;;;;;;;;;;5029158;28;20376;-72
2021/07/08 02:07:18;;;;;;;12.80;7.55;;;;;;;;;;5027042;28;20028;-72
2021/07/08 02:09:44;;;;;;;8.07;6.55;;;;;;;;;;5028783;28;20033;-72
2021/07/08 02:12:11;;;;;;;8.60;6.35;;;;;;;;;;5028615;28;20432;-72
2021/07/08 02:14:37;;;;;;;10.88;6.50;;;;;;;;;;5027507;28;20033;-72
2021/07/08 02:17:03;;;;;;;19.20;6.75;;;;;;;;;;5028584;28;20553;-75
2021/07/08 02:19:30;;;;;;;7.57;6.32;;;;;;;;;;5028382;28;20067;-72
2021/07/08 02:21:56;;;;;;;10.60;6.72;;;;;;;;;;5027097;28;20029;-72
2021/07/08 02:24:22;;;;;;;7.53;6.72;;;;;;;;;;5027616;28;20029;-72
2021/07/08 02:26:48;;;;;;;9.77;6.68;;;;;;;;;;5028222;28;20084;-72
2021/07/08 02:29:15;;;;;;;8.75;6.38;;;;;;;;;;5028688;28;20531;-72
2021/07/08 02:31:41;;;;;;;9.15;6.43;;;;;;;;;;5027908;28;20033;-72
2021/07/08 02:34:08;;;;;;;25.20;7.95;;;;;;;;;;5028797;28;20032;-79
2021/07/08 02:36:34;;;;;;;10.00;7.28;;;;;;;;;;5026387;28;20108;-72
2021/07/08 02:39:00;;;;;;;14.98;7.35;;;;;;;;;;5028318;28;20561;-74
2021/07/08 02:41:26;;;;;;;8.18;6.22;;;;;;;;;;5026683;28;20033;-74
2021/07/08 02:43:52;;;;;;;8.45;6.22;;;;;;;;;;5025823;28;20022;-77
2021/07/08 02:46:18;;;;;;;9.13;6.45;;;;;;;;;;5027127;28;20024;-72
2021/07/08 02:48:45;;;;;;;7.47;5.22;;;;;;;;;;5027502;28;20097;-72
2021/07/08 02:51:11;;;;;;;7.47;5.38;;;;;;;;;;5028315;28;20024;-72
2021/07/08 02:53:37;;;;;;;22.52;5.82;;;;;;;;;;5027201;28;20040;-72
2021/07/08 02:56:03;;;;;;;8.15;5.90;;;;;;;;;;5028764;28;20028;-73
2021/07/08 02:58:29;;;;;;;5.78;5.00;;;;;;;;;;5027948;28;20145;-72
2021/07/08 03:00:56;;;;;;;13.35;6.15;;;;;;;;;;5026268;28;20033;-72
2021/07/08 03:03:22;;;;;;;6.53;5.85;;;;;;;;;;5020396;28;20029;-72
2021/07/08 03:05:48;;;;;;;6.43;5.78;;;;;;;;;;5022984;28;20030;-72
2021/07/08 03:08:14;;;;;;;8.82;5.63;;;;;;;;;;5023104;28;20049;-71
2021/07/08 03:10:40;;;;;;;10.50;6.40;;;;;;;;;;5021940;28;20029;-72
2021/07/08 03:13:07;;;;;;;7.38;5.90;;;;;;;;;;5021952;28;20618;-72
2021/07/08 03:15:33;;;;;;;9.38;5.80;;;;;;;;;;5021577;28;20080;-72
2021/07/08 03:18:00;;;;;;;7.22;6.18;;;;;;;;;;5021787;28;20049;-72
2021/07/08 03:20:27;;;;;;;10.25;6.35;;;;;;;;;;5021906;28;20024;-72
2021/07/08 03:22:54;;;;;;;9.05;6.18;;;;;;;;;;5021737;28;20674;-72
2021/07/08 03:25:21;;;;;;;8.50;6.55;;;;;;;;;;5021678;28;20740;-72
2021/07/08 03:27:47;;;;;;;7.85;6.18;;;;;;;;;;5022139;28;20202;-72
2021/07/08 03:30:15;;;;;;;11.40;6.35;;;;;;;;;;5022440;28;20517;-72
2021/07/08 03:32:41;;;;;;;12.23;6.68;;;;;;;;;;5022316;28;20037;-72
2021/07/08 03:35:08;;;;;;;7.45;5.93;;;;;;;;;;5020289;28;20053;-72
2021/07/08 03:37:35;;;;;;;8.25;6.82;;;;;;;;;;5022708;28;20084;-72
2021/07/08 03:40:02;;;;;;;9.25;5.93;;;;;;;;;;5021620;28;20061;-71
2021/07/08 03:42:28;;;;;;;8.15;6.25;;;;;;;;;;5022516;28;20351;-72
2021/07/08 03:44:54;;;;;;;8.52;6.47;;;;;;;;;;5021224;28;20060;-72
2021/07/08 03:47:21;;;;;;;8.10;6.40;;;;;;;;;;5022384;28;20029;-71
2021/07/08 03:49:47;;;;;;;8.30;6.43;;;;;;;;;;5020844;28;20045;-77
2021/07/08 03:52:13;;;;;;;8.52;6.65;;;;;;;;;;5020795;28;20032;-72
2021/07/08 03:54:39;;;;;;;14.05;6.85;;;;;;;;;;5021995;28;20503;-72
2021/07/08 03:57:05;;;;;;;7.30;6.40;;;;;;;;;;5021727;28;20063;-73
2021/07/08 03:59:32;;;;;;;11.50;6.47;;;;;;;;;;5021162;28;20040;-73
2021/07/08 04:01:58;;;;;;;9.38;6.28;;;;;;;;;;5019638;28;20040;-73
2021/07/08 04:04:24;;;;;;;8.20;6.45;;;;;;;;;;5022064;28;20057;-73
2021/07/08 04:06:50;;;;;;;8.57;6.40;;;;;;;;;;5022026;28;20144;-73
2021/07/08 04:09:16;;;;;;;9.82;6.65;;;;;;;;;;5020949;28;20041;-73
2021/07/08 04:11:43;;;;;;;11.82;6.60;;;;;;;;;;5020615;28;20092;-73
2021/07/08 04:14:09;;;;;;;11.77;6.22;;;;;;;;;;5021423;28;20108;-73
2021/07/08 04:16:35;;;;;;;7.22;5.95;;;;;;;;;;5021892;28;20045;-72
2021/07/08 04:19:03;;;;;;;8.30;6.20;;;;;;;;;;5021360;28;20026;-73
2021/07/08 04:21:30;;;;;;;16.77;6.72;;;;;;;;;;5020849;28;20029;-73
2021/07/08 04:23:56;;;;;;;14.57;6.93;;;;;;;;;;5021977;28;20033;-73
2021/07/08 04:26:22;;;;;;;9.38;5.90;;;;;;;;;;5019726;28;20409;-73
2021/07/08 04:28:48;;;;;;;8.63;6.28;;;;;;;;;;5015980;28;20398;-73
2021/07/08 04:31:16;;;;;;;8.13;6.30;;;;;;;;;;5020329;28;20096;-73
2021/07/08 04:33:43;;;;;;;8.07;5.90;;;;;;;;;;5021148;28;20493;-73
2021/07/08 04:36:11;;;;;;;8.73;6.25;;;;;;;;;;5019721;28;20032;-73
2021/07/08 04:38:38;;;;;;;9.20;6.00;;;;;;;;;;5009498;28;20425;-73
2021/07/08 04:41:04;;;;;;;7.38;5.70;;;;;;;;;;5021372;28;20029;-75
2021/07/08 04:43:30;;;;;;;8.55;6.07;;;;;;;;;;5015939;28;20083;-73
2021/07/08 04:45:56;;;;;;;14.57;6.53;;;;;;;;;;5019506;28;20032;-72
2021/07/08 04:48:22;;;;;;;7.75;6.25;;;;;;;;;;5020634;28;20558;-73
2021/07/08 04:50:49;;;;;;;18.65;7.15;;;;;;;;;;5020841;28;20359;-73
2021/07/08 04:53:16;;;;;;;10.43;6.55;;;;;;;;;;5021026;28;20371;-73
2021/07/08 04:55:42;;;;;;;7.70;5.85;;;;;;;;;;5019342;28;20018;-73
2021/07/08 04:58:08;;;;;;;10.40;5.70;;;;;;;;;;5021190;28;20026;-73
2021/07/08 05:00:34;;;;;;;11.85;6.20;;;;;;;;;;5020246;28;20038;-72
2021/07/08 05:03:05;;;;;;;8.45;6.00;;;;;;;;;;5021535;28;20482;-71
2021/07/08 05:05:32;;;;;;;11.50;5.70;;;;;;;;;;5019093;28;20029;-72
2021/07/08 05:07:58;;;;;;;8.30;6.18;;;;;;;;;;5021016;28;20037;-73
2021/07/08 05:10:24;;;;;;;12.35;6.00;;;;;;;;;;5021090;28;20037;-73
2021/07/08 05:12:50;;;;;;;7.82;5.90;;;;;;;;;;5020714;28;20528;-72
2021/07/08 05:15:17;;;;;;;9.60;6.03;;;;;;;;;;5017875;28;20034;-72
2021/07/08 05:17:44;;;;;;;13.65;6.60;;;;;;;;;;5020878;28;20025;-74
2021/07/08 05:20:10;;;;;;;7.60;5.88;;;;;;;;;;5021088;28;20026;-75
2021/07/08 05:22:37;;;;;;;7.28;4.90;;;;;;;;;;5019143;28;20385;-73
2021/07/08 05:25:05;;;;;;;9.00;5.70;;;;;;;;;;5017368;28;20037;-74
2021/07/08 05:27:32;;;;;;;12.60;5.70;;;;;;;;;;5020408;28;20033;-75
2021/07/08 05:29:59;;;;;;;8.70;5.00;;;;;;;;;;5018539;28;20061;-74
2021/07/08 05:32:25;;;;;;;11.07;6.25;;;;;;;;;;5019266;28;20026;-75
2021/07/08 05:34:52;;;;;;;10.55;6.25;;;;;;;;;;5020469;28;20124;-77
2021/07/08 05:37:18;;;;;;;13.20;6.00;;;;;;;;;;5020257;28;20023;-75
2021/07/08 05:39:44;;;;;;;9.93;6.47;;;;;;;;;;5018562;28;20030;-75
2021/07/08 05:42:10;;;;;;;9.82;5.75;;;;;;;;;;5019784;28;20029;-75
2021/07/08 05:44:36;;;;;;;12.18;5.40;;;;;;;;;;5024583;28;20033;-75
2021/07/08 05:47:02;;;;;;;5.22;4.38;;;;;;;;;;5022415;28;20167;-75
2021/07/08 05:49:29;;;;;;;7.80;5.05;;;;;;;;;;5023827;28;20098;-74
2021/07/08 05:51:55;;;;;;;7.68;6.05;;;;;;;;;;5023721;28;20025;-74
2021/07/08 05:54:21;;;;;;;10.02;5.80;;;;;;;;;;5024433;28;20029;-74
2021/07/08 05:56:47;;;;;;;8.95;6.45;;;;;;;;;;5023117;28;20021;-75
2021/07/08 05:59:13;;;;;;;9.40;5.22;;;;;;;;;;5024302;28;20119;-75
2021/07/08 06:01:39;;;;;;;5.78;5.15;;;;;;;;;;5022695;28;20113;-75
2021/07/08 06:04:06;;;;;;;8.10;5.68;;;;;;;;;;5022366;28;20090;-74
2021/07/08 06:06:32;;;;;;;10.07;5.25;;;;;;;;;;5024108;28;20025;-75
2021/07/08 06:08:58;;;;;;;8.75;5.60;;;;;;;;;;5023358;28;20042;-74
2021/07/08 06:11:24;;;;;;;8.80;5.60;;;;;;;;;;5024577;28;20040;-74
2021/07/08 06:13:50;;;;;;;6.25;5.03;;;;;;;;;;5023913;28;20034;-74
2021/07/08 06:16:16;;;;;;;22.15;6.15;;;;;;;;;;5022134;28;20041;-75
2021/07/08 06:18:42;;;;;;;17.73;5.50;;;;;;;;;;5023980;28;20025;-75
2021/07/08 06:21:13;;;;;;;8.60;5.28;;;;;;;;;;5023657;28;20116;-75
2021/07/08 06:23:39;;;;;;;11.65;6.10;;;;;;;;;;5024100;28;20037;-75
2021/07/08 06:26:05;;;;;;;6.75;4.88;;;;;;;;;;5024190;28;20605;-75
2021/07/08 06:28:34;;;;;;;8.20;5.30;;;;;;;;;;5022075;28;20048;-76
2021/07/08 06:31:00;;;;;;;4.88;4.40;;;;;;;;;;5023704;28;20120;-75
2021/07/08 06:33:26;;;;;;;5.55;4.13;;;;;;;;;;5024065;28;20021;-75
2021/07/08 06:35:52;;;;;;;14.35;6.20;;;;;;;;;;5022775;28;20029;-75
2021/07/08 06:38:19;;;;;;;6.53;4.20;;;;;;;;;;5024038;28;20423;-75
2021/07/08 06:40:45;;;;;;;6.22;4.10;;;;;;;;;;5022145;28;20061;-75
2021/07/08 06:43:11;;;;;;;6.30;4.80;;;;;;;;;;5023018;28;20097;-75
2021/07/08 06:45:38;;;;;;;5.53;4.35;;;;;;;;;;5023589;28;20037;-75
2021/07/08 06:48:05;;;;;;;8.32;4.82;;;;;;;;;;5023988;28;20033;-75
2021/07/08 06:50:36;;;;;;;5.28;3.92;;;;;;;;;;5023902;28;20446;-75
2021/07/08 06:53:05;;;;;;;18.08;5.40;;;;;;;;;;5021368;28;20091;-73
2021/07/08 06:55:32;;;;;;;4.57;3.55;;;;;;;;;;5020504;28;20037;-73
2021/07/08 06:57:58;;;;;;;4.43;3.47;;;;;;;;;;5023690;28;20036;-75
2021/07/08 07:00:25;;;;;;;7.65;3.95;;;;;;;;;;5021357;28;20030;-73
2021/07/08 07:02:52;;;;;;;7.82;3.92;;;;;;;;;;5020661;28;20033;-75
2021/07/08 07:05:19;;;;;;;9.63;4.80;;;;;;;;;;5023389;28;20052;-75
2021/07/08 07:07:45;;;;;;;6.43;4.53;;;;;;;;;;5023168;28;20099;-74
2021/07/08 07:10:12;;;;;;;5.10;4.32;;;;;;;;;;5024164;28;20500;-75
2021/07/08 07:12:48;;;;;;;9.00;4.78;;;;;;;;;;5023262;28;20033;-74
2021/07/08 07:15:16;;;;;;;4.88;4.22;;;;;;;;;;5023595;28;20216;-76
2021/07/08 07:17:42;;;;;;;7.35;4.32;;;;;;;;;;5022296;28;20623;-75
2021/07/08 07:20:10;;;;;;;9.50;5.28;;;;;;;;;;5021781;28;20385;-76
2021/07/08 07:22:36;;;;;;;5.43;4.45;;;;;;;;;;5022541;28;20045;-76
2021/07/08 07:25:04;;;;;;;4.38;3.83;;;;;;;;;;5022092;28;20222;-75
2021/07/08 07:27:30;;;;;;;4.50;4.03;;;;;;;;;;5008039;28;20034;-76
2021/07/08 07:29:56;;;;;;;7.28;3.63;;;;;;;;;;5013363;28;20042;-74
2021/07/08 07:32:22;;;;;;;6.88;3.90;;;;;;;;;;5016212;28;20095;-74
2021/07/08 07:34:48;;;;;;;6.05;3.50;;;;;;;;;;5000612;28;20120;-76
2021/07/08 07:37:15;;;;;;;3.60;3.17;;;;;;;;;;5014589;28;20100;-77
2021/07/08 07:39:41;;;;;;;5.80;3.80;;;;;;;;;;5010211;28;20622;-76
2021/07/08 07:42:07;;;;;;;4.30;3.17;;;;;;;;;;5018131;28;20084;-75
2021/07/08 07:44:33;;;;;;;3.38;2.80;;;;;;;;;;5011439;28;20347;-75
2021/07/08 07:47:00;;;;;;;3.90;2.85;;;;;;;;;;5012112;28;20395;-74
2021/07/08 07:49:26;;;;;;;5.53;3.25;;;;;;;;;;5007408;28;20040;-75
2021/07/08 07:51:52;;;;;;;5.20;2.97;;;;;;;;;;5007505;28;20029;-76
2021/07/08 07:54:18;;;;;;;3.40;3.10;;;;;;;;;;5016955;28;20261;-76
2021/07/08 07:56:44;;;;;;;4.28;2.90;;;;;;;;;;5006713;28;20064;-74
2021/07/08 07:59:10;;;;;;;4.65;3.00;;;;;;;;;;5009147;28;20021;-74
2021/07/08 08:01:37;;;;;;;6.55;3.22;;;;;;;;;;5011610;28;20029;-76
2021/07/08 08:04:03;;;;;;;7.32;3.42;;;;;;;;;;5016094;28;20104;-75
2021/07/08 08:09:14;;;;;;;6.03;3.42;;;;;;;;;;5017788;28;20061;-73
2021/07/08 08:11:40;;;;;;;4.47;3.20;;;;;;;;;;5021896;28;20064;-76
2021/07/08 08:14:06;;;;;;;4.82;3.00;;;;;;;;;;5012474;28;20155;-78
2021/07/08 08:16:35;;;;;;;6.72;3.88;;;;;;;;;;5011277;28;20045;-75
2021/07/08 08:19:01;;;;;;;3.70;3.17;;;;;;;;;;5013975;28;20040;-75
2021/07/08 08:21:27;;;;;;;7.07;4.38;;;;;;;;;;5014944;28;20599;-74
2021/07/08 08:23:53;;;;;;;7.93;3.65;;;;;;;;;;5006771;28;20040;-76
2021/07/08 08:26:19;;;;;;;5.70;3.60;;;;;;;;;;5003760;28;20389;-76
2021/07/08 08:28:46;;;;;;;6.65;3.90;;;;;;;;;;5006957;28;20038;-75
2021/07/08 08:31:12;;;;;;;7.28;4.53;;;;;;;;;;5007411;28;20114;-76
2021/07/08 08:33:38;;;;;;;7.18;3.58;;;;;;;;;;5005887;28;20029;-75
2021/07/08 08:36:04;;;;;;;4.82;3.70;;;;;;;;;;5008009;28;20028;-74
2021/07/08 08:38:30;;;;;;;4.65;3.20;;;;;;;;;;5007467;28;20033;-73
2021/07/08 08:40:57;;;;;;;8.30;3.90;;;;;;;;;;5004840;28;20510;-76
2021/07/08 08:43:23;;;;;;;5.72;3.72;;;;;;;;;;5002885;28;20813;-75
2021/07/08 08:45:50;;;;;;;4.78;4.20;;;;;;;;;;5001167;28;20084;-75
2021/07/08 08:48:16;;;;;;;5.60;3.40;;;;;;;;;;5004263;28;20115;-77
2021/07/08 08:50:45;;;;;;;8.90;4.60;;;;;;;;;;5006096;28;20032;-75
2021/07/08 08:53:11;;;;;;;6.47;3.80;;;;;;;;;;5009526;28;20425;-73
2021/07/08 08:55:38;;;;;;;5.05;3.20;;;;;;;;;;5006944;28;20629;-74
2021/07/08 08:58:05;;;;;;;3.05;2.58;;;;;;;;;;5005034;28;20578;-74
2021/07/08 09:00:31;;;;;;;5.75;3.70;;;;;;;;;;4996837;28;20037;-71
2021/07/08 09:03:02;;;;;;;3.03;2.70;;;;;;;;;;5017043;28;20455;-73
2021/07/08 09:05:28;;;;;;;5.33;2.70;;;;;;;;;;5007250;28;20029;-72
2021/07/08 09:08:09;;;;;;;4.85;2.92;;;;;;;;;;5015752;28;20026;-73
2021/07/08 09:10:36;;;;;;;3.72;2.92;;;;;;;;;;5017261;28;20045;-73
2021/07/08 09:13:02;;;;;;;3.38;2.40;;;;;;;;;;5008852;28;20037;-73
2021/07/08 09:15:28;;;;;;;2.97;2.38;;;;;;;;;;5010508;28;20102;-74
2021/07/08 09:17:54;;;;;;;5.90;2.67;;;;;;;;;;5007726;28;20025;-73
2021/07/08 09:20:21;;;;;;;5.50;2.95;;;;;;;;;;5016037;28;20053;-75
2021/07/08 09:22:48;;;;;;;7.82;3.08;;;;;;;;;;5024530;28;20022;-74
2021/07/08 09:25:25;;;;;;;5.43;3.60;;;;;;;;;;5021963;28;20032;-69
2021/07/08 09:28:12;;;;;;;3.85;2.78;;;;;;;;;;5024196;28;20039;-73
2021/07/08 09:30:39;;;;;;;5.63;3.83;;;;;;;;;;5021545;28;20109;-73
2021/07/08 09:33:25;;;;;;;5.13;3.30;;;;;;;;;;5023527;28;20098;-73
2021/07/08 09:35:51;;;;;;;12.73;4.00;;;;;;;;;;5020367;28;20144;-74
2021/07/08 09:38:23;;;;;;;5.45;3.60;;;;;;;;;;5023573;28;20029;-73
2021/07/08 09:41:04;;;;;;;6.10;3.60;;;;;;;;;;5020975;28;20470;-73
2021/07/08 09:43:31;;;;;;;9.10;4.33;;;;;;;;;;5020355;28;20033;-75
2021/07/08 09:45:57;;;;;;;9.38;4.25;;;;;;;;;;5024851;28;20052;-73
2021/07/08 09:48:23;;;;;;;4.28;3.45;;;;;;;;;;5023472;28;20602;-73
2021/07/08 09:50:49;;;;;;;6.25;3.75;;;;;;;;;;5024236;28;20029;-73
2021/07/08 09:53:18;;;;;;;16.80;5.30;;;;;;;;;;5022821;28;20029;-72
2021/07/08 09:58:31;;;;;;;7.50;3.60;;;;;;;;;;5017123;28;20532;-73
2021/07/08 10:00:57;;;;;;;4.68;2.97;;;;;;;;;;5021728;28;20059;-75
2021/07/08 10:03:23;;;;;;;5.50;3.53;;;;;;;;;;5024230;28;20104;-72
2021/07/08 10:05:50;;;;;;;3.75;3.33;;;;;;;;;;5023977;28;20028;-71
2021/07/08 10:08:21;;;;;;;6.35;3.33;;;;;;;;;;5023904;28;20036;-72
2021/07/08 10:10:48;;;;;;;3.88;3.08;;;;;;;;;;5023602;28;20095;-71
2021/07/08 10:13:15;;;;;;;6.68;3.40;;;;;;;;;;5024522;28;20987;-75
2021/07/08 10:15:43;;;;;;;4.68;3.17;;;;;;;;;;5021805;28;20065;-72
2021/07/08 10:18:12;;;;;;;5.22;3.10;;;;;;;;;;5024182;28;20068;-72
2021/07/08 10:20:38;;;;;;;3.53;2.65;;;;;;;;;;5023944;28;20145;-72
2021/07/08 10:23:05;;;;;;;5.97;3.15;;;;;;;;;;5020525;28;20550;-74
2021/07/08 10:25:32;;;;;;;8.18;3.55;;;;;;;;;;5020203;28;20033;-73
2021/07/08 10:27:58;;;;;;;4.55;2.83;;;;;;;;;;5022605;28;20057;-73
2021/07/08 10:30:25;;;;;;;4.88;3.03;;;;;;;;;;5021846;28;20029;-73
2021/07/08 10:32:55;;;;;;;4.20;3.00;;;;;;;;;;5023666;28;20110;-72
2021/07/08 10:35:37;;;;;;;19.55;4.72;;;;;;;;;;5021968;28;20371;-73
2021/07/08 10:38:23;;;;;;;5.93;3.05;;;;;;;;;;5023378;28;20041;-74
2021/07/08 10:40:50;;;;;;;4.45;3.72;;;;;;;;;;5023625;28;20628;-73
2021/07/08 10:43:16;;;;;;;5.15;3.30;;;;;;;;;;5023750;28;20040;-75
2021/07/08 10:45:43;;;;;;;6.68;3.28;;;;;;;;;;5023690;28;20025;-74
2021/07/08 10:48:11;;;;;;;4.72;3.10;;;;;;;;;;5022501;28;20033;-73
2021/07/08 10:50:37;;;;;;;3.63;2.85;;;;;;;;;;5022902;28;20022;-74
2021/07/08 10:53:30;;;;;;;3.95;3.30;;;;;;;;;;5022487;28;20022;-74
2021/07/08 10:55:57;;;;;;;5.35;3.92;;;;;;;;;;5022609;28;20049;-74
2021/07/08 10:58:42;;;;;;;5.20;3.33;;;;;;;;;;5023587;28;20021;-74
2021/07/08 11:01:10;;;;;;;5.30;3.92;;;;;;;;;;5018509;28;20499;-74
2021/07/08 11:03:38;;;;;;;6.65;3.42;;;;;;;;;;5023627;28;20047;-74
2021/07/08 11:06:11;;;;;;;4.60;3.13;;;;;;;;;;5023905;28;20034;-73
2021/07/08 11:08:51;;;;;;;5.35;4.03;;;;;;;;;;5022957;28;20025;-74
2021/07/08 11:11:23;;;;;;;4.75;3.63;;;;;;;;;;5021375;28;20080;-73
2021/07/08 11:13:50;;;;;;;4.88;4.00;;;;;;;;;;5022784;28;20109;-75
2021/07/08 11:16:35;;;;;;;6.75;4.47;;;;;;;;;;5008727;28;20048;-74
2021/07/08 11:19:02;;;;;;;4.57;3.25;;;;;;;;;;5005040;28;20338;-74
2021/07/08 11:21:55;;;;;;;6.28;3.58;;;;;;;;;;5004742;28;20065;-74
2021/07/08 11:24:25;;;;;;;5.65;3.60;;;;;;;;;;5010329;28;20026;-75
2021/07/08 11:26:54;;;;;;;5.15;3.97;;;;;;;;;;5001254;28;20105;-74
2021/07/08 11:29:37;;;;;;;7.03;3.70;;;;;;;;;;5007869;28;20508;-73
2021/07/08 11:32:25;;;;;;;5.72;3.88;;;;;;;;;;5007516;28;20484;-73
2021/07/08 11:34:52;;;;;;;6.32;3.67;;;;;;;;;;5016475;28;20455;-72
2021/07/08 11:37:24;;;;;;;5.78;3.60;;;;;;;;;;5022724;28;20612;-72
2021/07/08 11:39:56;;;;;;;3.67;3.15;;;;;;;;;;5020066;28;20410;-73
2021/07/08 11:42:33;;;;;;;6.20;4.00;;;;;;;;;;5021892;28;20041;-73
2021/07/08 11:45:03;;;;;;;5.78;4.03;;;;;;;;;;5022556;28;20026;-72
2021/07/08 11:47:39;;;;;;;11.27;5.28;;;;;;;;;;5022321;28;20151;-72
2021/07/08 11:50:06;;;;;;;7.15;3.85;;;;;;;;;;5022510;28;20091;-73
2021/07/08 11:52:33;;;;;;;6.05;3.53;;;;;;;;;;5019577;28;20497;-73
2021/07/08 11:55:00;;;;;;;7.90;3.67;;;;;;;;;;5021552;28;20048;-76
2021/07/08 11:57:27;;;;;;;5.40;3.65;;;;;;;;;;5020288;28;20017;-73
2021/07/08 11:59:54;;;;;;;6.53;3.60;;;;;;;;;;5020121;28;20026;-75
2021/07/08 12:02:36;;;;;;;7.03;3.92;;;;;;;;;;5022077;28;20462;-76
2021/07/08 12:05:11;;;;;;;6.05;3.75;;;;;;;;;;5021800;28;20473;-74
2021/07/08 12:07:40;;;;;;;5.57;3.90;;;;;;;;;;5020210;28;20014;-75
2021/07/08 12:10:06;;;;;;;5.63;3.45;;;;;;;;;;5021268;28;20033;-75
2021/07/08 12:12:33;;;;;;;7.13;3.75;;;;;;;;;;5020578;28;20087;-76
2021/07/08 12:15:00;;;;;;;5.55;3.30;;;;;;;;;;5017945;28;20073;-75
2021/07/08 12:17:31;;;;;;;7.13;4.40;;;;;;;;;;5019785;28;20030;-76
2021/07/08 12:20:16;;;;;;;4.40;3.75;;;;;;;;;;5021540;28;20128;-75
2021/07/08 12:22:56;;;;;;;4.20;3.80;;;;;;;;;;5021279;28;20022;-75
2021/07/08 12:25:23;;;;;;;5.65;4.20;;;;;;;;;;5021643;28;20216;-75
2021/07/08 12:27:50;;;;;;;5.20;3.70;;;;;;;;;;5021475;28;20107;-74
2021/07/08 12:30:36;;;;;;;7.30;3.10;;;;;;;;;;5019642;28;20037;-75
2021/07/08 12:33:05;;;;;;;5.82;3.40;;;;;;;;;;5021246;28;20036;-75
2021/07/08 12:35:45;;;;;;;4.25;3.20;;;;;;;;;;5021263;28;20057;-76
2021/07/08 12:38:12;;;;;;;5.55;3.42;;;;;;;;;;5021083;28;20033;-77
2021/07/08 12:40:39;;;;;;;5.18;3.00;;;;;;;;;;5020773;28;20018;-76
2021/07/08 12:43:07;;;;;;;3.70;3.40;;;;;;;;;;5020982;28;20030;-74
2021/07/08 12:45:36;;;;;;;4.57;3.60;;;;;;;;;;5018730;28;20844;-75
2021/07/08 12:48:02;;;;;;;4.78;3.47;;;;;;;;;;5019747;28;20091;-77
2021/07/08 12:50:33;;;;;;;5.93;3.88;;;;;;;;;;5020787;28;20053;-75
2021/07/08 12:53:00;;;;;;;4.75;4.03;;;;;;;;;;5021544;28;20109;-76
2021/07/08 12:55:37;;;;;;;4.38;3.72;;;;;;;;;;5018737;28;20567;-76
2021/07/08 12:58:04;;;;;;;4.50;3.80;;;;;;;;;;5020079;28;20478;-74
2021/07/08 13:00:32;;;;;;;6.18;3.75;;;;;;;;;;5020226;28;20067;-74
2021/07/08 13:02:58;;;;;;;4.35;3.67;;;;;;;;;;5021164;28;20021;-74
2021/07/08 13:05:33;;;;;;;4.88;3.53;;;;;;;;;;5021186;28;20108;-76
2021/07/08 13:07:59;;;;;;;6.47;4.13;;;;;;;;;;5012161;28;20129;-76
2021/07/08 13:10:33;;;;;;;6.03;4.07;;;;;;;;;;5020673;28;20030;-79
2021/07/08 13:12:59;;;;;;;6.40;4.07;;;;;;;;;;5018614;28;20125;-75
2021/07/08 13:15:26;;;;;;;4.50;3.50;;;;;;;;;;5020567;28;20044;-76
2021/07/08 13:18:05;;;;;;;4.20;3.30;;;;;;;;;;5018941;28;20052;-76
2021/07/08 13:20:32;;;;;;;4.78;3.88;;;;;;;;;;5021013;28;20026;-77
2021/07/08 13:22:58;;;;;;;4.13;3.70;;;;;;;;;;5014839;28;20071;-76
2021/07/08 13:25:26;;;;;;;5.10;4.03;;;;;;;;;;5014286;28;20587;-75
2021/07/08 13:27:53;;;;;;;5.03;3.65;;;;;;;;;;5020048;28;20040;-73
2021/07/08 13:30:27;;;;;;;6.97;4.32;;;;;;;;;;5020078;28;20042;-74
2021/07/08 13:33:04;;;;;;;7.05;4.40;;;;;;;;;;5020144;28;20030;-73
2021/07/08 13:35:57;;;;;;;4.25;3.85;;;;;;;;;;5020280;28;20037;-74
2021/07/08 13:38:24;;;;;;;6.65;4.18;;;;;;;;;;5012617;28;20200;-73
2021/07/08 13:41:00;;;;;;;4.82;4.43;;;;;;;;;;5019834;28;20028;-73
2021/07/08 13:43:37;;;;;;;5.43;4.18;;;;;;;;;;5019764;28;20018;-73
2021/07/08 13:46:09;;;;;;;13.63;4.50;;;;;;;;;;5018622;28;20060;-73
2021/07/08 13:48:36;;;;;;;5.70;3.92;;;;;;;;;;5019771;28;20286;-73
2021/07/08 13:51:04;;;;;;;4.65;4.15;;;;;;;;;;5020196;28;20029;-74
2021/07/08 13:53:30;;;;;;;5.88;4.20;;;;;;;;;;5020488;28;20032;-73
2021/07/08 13:55:56;;;;;;;7.70;4.50;;;;;;;;;;5018356;28;20105;-73
2021/07/08 13:58:23;;;;;;;5.80;4.18;;;;;;;;;;5020207;28;20026;-73
2021/07/08 14:00:49;;;;;;;6.07;4.07;;;;;;;;;;5019157;28;20108;-74
2021/07/08 14:03:15;;;;;;;7.07;3.85;;;;;;;;;;5020109;28;20477;-74
2021/07/08 14:05:41;;;;;;;4.10;3.70;;;;;;;;;;5023510;28;20568;-74
2021/07/08 14:08:08;;;;;;;8.13;4.32;;;;;;;;;;5021953;28;20022;-74
2021/07/08 14:10:34;;;;;;;6.63;3.88;;;;;;;;;;5022463;28;20034;-75
2021/07/08 14:13:02;;;;;;;5.50;4.03;;;;;;;;;;5022673;28;20108;-74
2021/07/08 14:15:28;;;;;;;6.22;4.30;;;;;;;;;;5023273;28;20132;-73
2021/07/08 14:17:54;;;;;;;5.40;3.80;;;;;;;;;;5024995;28;20584;-74
2021/07/08 14:20:20;;;;;;;6.43;4.47;;;;;;;;;;5022932;28;20115;-74
2021/07/08 14:22:46;;;;;;;6.13;3.90;;;;;;;;;;5021547;28;20021;-73
2021/07/08 14:25:13;;;;;;;5.55;4.10;;;;;;;;;;5023143;28;20120;-74
2021/07/08 14:27:39;;;;;;;5.72;3.75;;;;;;;;;;5023071;28;20026;-73
2021/07/08 14:30:05;;;;;;;5.93;3.70;;;;;;;;;;5021239;28;20443;-74
2021/07/08 14:32:32;;;;;;;5.85;4.30;;;;;;;;;;5022426;28;20094;-74
2021/07/08 14:34:58;;;;;;;4.20;3.80;;;;;;;;;;5023047;28;20029;-74
2021/07/08 14:37:24;;;;;;;6.80;4.35;;;;;;;;;;5021876;28;20022;-76
2021/07/08 14:39:52;;;;;;;5.28;4.57;;;;;;;;;;5022693;28;20623;-74
2021/07/08 14:42:32;;;;;;;6.63;4.35;;;;;;;;;;5022306;28;20029;-75
2021/07/08 14:45:02;;;;;;;9.00;4.57;;;;;;;;;;5014975;28;20018;-74
2021/07/08 14:47:33;;;;;;;4.38;3.97;;;;;;;;;;5023098;28;20508;-75
2021/07/08 14:50:00;;;;;;;4.45;4.05;;;;;;;;;;5022610;28;20053;-76
2021/07/08 14:52:27;;;;;;;10.05;4.60;;;;;;;;;;5020999;28;20029;-75